Time;durP1;ratioP1;P1;durP2;ratioP2;P2;SDS_P1;SDS_P2;PMS_P1;PMS_P2;Temp;Humidity;BMP_temperature;BMP_pressure;BME280_temperature;BME280_humidity;BME280_pressure;Samples;Min_cycle;Max_cycle;Signal;HPM_P1;HPM_P2
2021/03/02 00:00:43;;;;;;;;;;;;;;;21.43;36.42;102854.66;3121590;27;113992;-57
2021/03/02 00:02:15;;;;;;;;;;;;;;;21.41;35.96;102852.13;3101346;27;115638;-57
2021/03/02 00:03:49;;;;;;;;;;;;;;;21.40;36.27;102850.41;3119481;27;115189;-57
2021/03/02 00:05:21;;;;;;;;;;;;;;;21.40;36.13;102850.41;3124545;27;115435;-57
2021/03/02 00:06:53;;;;;;;;;;;;;;;21.38;36.52;102844.22;3118721;27;115167;-57
2021/03/02 00:08:26;;;;;;;;;;;;;;;21.37;36.16;102842.53;3123387;27;114603;-57
2021/03/02 00:09:59;;;;;;;;;;;;;;;21.36;36.33;102839.97;3122538;27;114311;-57
2021/03/02 00:11:38;;;;;;;;;;;;;;;21.35;36.39;102844.75;3122707;27;114062;-58
2021/03/02 00:13:11;;;;;;;;;;;;;;;21.34;36.68;102842.22;3124405;27;114497;-58
2021/03/02 00:14:44;;;;;;;;;;;;;;;21.33;36.45;102846.13;3110453;28;115232;-57
2021/03/02 00:16:21;;;;;;;;;;;;;;;21.32;36.50;102847.25;3121378;27;115066;-57
2021/03/02 00:17:56;;;;;;;;;;;;;;;21.31;37.09;102840.78;3108420;28;114183;-57
2021/03/02 00:19:33;;;;;;;;;;;;;;;21.29;36.94;102841.06;3108661;28;114513;-56
2021/03/02 00:21:11;;;;;;;;;;;;;;;21.29;36.75;102846.69;3107384;28;116483;-57
2021/03/02 00:22:49;;;;;;;;;;;;;;;21.28;36.94;102839.34;3118296;27;115647;-57
2021/03/02 00:24:25;;;;;;;;;;;;;;;21.26;37.07;102833.13;3121882;27;114733;-56
2021/03/02 00:25:58;;;;;;;;;;;;;;;21.24;37.46;102835.38;3122210;27;114692;-57
2021/03/02 00:27:30;;;;;;;;;;;;;;;21.24;37.44;102837.34;3124732;27;114708;-58
2021/03/02 00:29:04;;;;;;;;;;;;;;;21.23;37.33;102833.69;3123986;27;114694;-57
2021/03/02 00:30:37;;;;;;;;;;;;;;;21.23;37.21;102838.47;3098634;28;114595;-57
2021/03/02 00:32:10;;;;;;;;;;;;;;;21.20;37.51;102837.03;3101612;28;115030;-58
2021/03/02 00:33:45;;;;;;;;;;;;;;;21.20;37.53;102844.63;3103707;28;114941;-57
2021/03/02 00:35:17;;;;;;;;;;;;;;;21.17;37.65;102834.75;3114947;27;114934;-57
2021/03/02 00:36:49;;;;;;;;;;;;;;;21.17;37.28;102833.88;3109063;28;115907;-57
2021/03/02 00:38:20;;;;;;;;;;;;;;;21.15;37.61;102839.81;3117290;27;115890;-57
2021/03/02 00:39:52;;;;;;;;;;;;;;;21.15;37.50;102836.13;3120928;27;114620;-57
2021/03/02 00:41:24;;;;;;;;;;;;;;;21.13;37.68;102833.59;3127311;27;116245;-57
2021/03/02 00:42:57;;;;;;;;;;;;;;;21.12;37.67;102828.22;3105926;28;114550;-58
2021/03/02 00:44:29;;;;;;;;;;;;;;;21.11;37.59;102832.13;3120410;27;115511;-57
2021/03/02 00:46:01;;;;;;;;;;;;;;;21.08;37.64;102827.03;3109880;28;114264;-57
2021/03/02 00:47:34;;;;;;;;;;;;;;;21.07;37.47;102830.97;3119744;27;114083;-57
2021/03/02 00:49:06;;;;;;;;;;;;;;;21.06;37.71;102832.94;3122950;27;113896;-57
2021/03/02 00:50:38;;;;;;;;;;;;;;;21.06;37.85;102834.91;3108589;28;114286;-57
2021/03/02 00:52:11;;;;;;;;;;;;;;;21.04;37.58;102834.28;3119924;27;113888;-57
2021/03/02 00:53:43;;;;;;;;;;;;;;;21.03;37.55;102827.81;3123236;27;113782;-57
2021/03/02 00:55:15;;;;;;;;;;;;;;;21.02;37.44;102831.78;3122995;27;113695;-57
2021/03/02 00:56:47;;;;;;;;;;;;;;;21.00;37.59;102833.13;3110153;28;113985;-57
2021/03/02 00:58:19;;;;;;;;;;;;;;;20.98;37.59;102835.38;3103909;28;113911;-57
2021/03/02 00:59:52;;;;;;;;;;;;;;;20.96;37.88;102832.81;3107935;28;114111;-58
2021/03/02 01:01:25;;;;;;;;;;;;;;;20.96;37.71;102837.59;3118837;27;113703;-58
2021/03/02 01:02:58;;;;;;;;;;;;;;;20.95;37.69;102847.13;3114006;28;113999;-57
2021/03/02 01:04:30;;;;;;;;;;;;;;;20.84;38.44;102846.19;3116797;27;115724;-57
2021/03/02 01:06:03;;;;;;;;;;;;;;;20.81;37.82;102843.91;3122693;27;114262;-57
2021/03/02 01:07:36;;;;;;;;;;;;;;;20.77;37.41;102839.91;3110925;28;115284;-57
2021/03/02 01:09:08;;;;;;;;;;;;;;;20.78;37.36;102838.81;3106283;28;115138;-57
2021/03/02 01:10:40;;;;;;;;;;;;;;;20.77;37.37;102837.09;3118837;27;115048;-57
2021/03/02 01:12:18;;;;;;;;;;;;;;;20.75;37.58;102837.41;3109772;28;114137;-58
2021/03/02 01:13:50;;;;;;;;;;;;;;;20.75;37.85;102839.34;3118072;27;115246;-57
2021/03/02 01:15:23;;;;;;;;;;;;;;;20.75;38.05;102844.97;3104945;28;115110;-57
2021/03/02 01:16:56;;;;;;;;;;;;;;;20.74;37.38;102830.06;3109101;28;114099;-58
2021/03/02 01:18:28;;;;;;;;;;;;;;;20.74;37.60;102838.50;3111352;28;113739;-58
2021/03/02 01:20:00;;;;;;;;;;;;;;;20.73;37.94;102833.13;3102900;28;115235;-58
2021/03/02 01:21:33;;;;;;;;;;;;;;;20.73;37.83;102831.19;3117145;27;114041;-57
2021/03/02 01:23:05;;;;;;;;;;;;;;;20.71;37.89;102839.03;3110250;28;115123;-57
2021/03/02 01:24:38;;;;;;;;;;;;;;;20.70;37.83;102837.34;3092494;28;114185;-57
2021/03/02 01:26:10;;;;;;;;;;;;;;;20.69;37.95;102838.44;3115393;27;116628;-57
2021/03/02 01:27:42;;;;;;;;;;;;;;;20.68;38.26;102836.75;3109001;28;115359;-58
2021/03/02 01:29:15;;;;;;;;;;;;;;;20.67;37.92;102843.47;3119164;27;114838;-57
2021/03/02 01:30:47;;;;;;;;;;;;;;;20.66;38.17;102833.34;3107930;28;114683;-57
2021/03/02 01:32:19;;;;;;;;;;;;;;;20.66;38.04;102832.50;3118511;27;115651;-57
2021/03/02 01:33:51;;;;;;;;;;;;;;;20.66;38.05;102833.34;3118868;27;114552;-57
2021/03/02 01:35:24;;;;;;;;;;;;;;;20.64;38.23;102824.34;3106473;28;115811;-57
2021/03/02 01:36:57;;;;;;;;;;;;;;;20.65;37.84;102823.22;3107327;28;115234;-57
2021/03/02 01:38:29;;;;;;;;;;;;;;;20.62;38.04;102826.56;3114394;27;114627;-58
2021/03/02 01:40:06;;;;;;;;;;;;;;;20.62;37.90;102823.78;3120949;27;115841;-57
2021/03/02 01:41:40;;;;;;;;;;;;;;;20.60;37.89;102819.50;3107213;28;114867;-57
2021/03/02 01:43:13;;;;;;;;;;;;;;;20.58;38.19;102819.75;3120044;27;114624;-57
2021/03/02 01:44:46;;;;;;;;;;;;;;;20.57;37.91;102823.69;3122830;27;115891;-57
2021/03/02 01:46:18;;;;;;;;;;;;;;;20.56;38.10;102815.53;3108412;28;114597;-58
2021/03/02 01:47:51;;;;;;;;;;;;;;;20.55;38.25;102814.69;3122528;27;116614;-57
2021/03/02 01:49:23;;;;;;;;;;;;;;;20.55;38.26;102822.25;3124277;27;113916;-58
2021/03/02 01:50:55;;;;;;;;;;;;;;;20.51;38.18;102816.31;3122475;27;114093;-57
2021/03/02 01:52:28;;;;;;;;;;;;;;;20.51;38.10;102809.84;3119955;27;114718;-57
2021/03/02 01:54:01;;;;;;;;;;;;;;;20.52;38.23;102812.41;3108939;28;114036;-57
2021/03/02 01:55:34;;;;;;;;;;;;;;;20.51;38.40;102804.22;3120114;27;114237;-57
2021/03/02 01:57:06;;;;;;;;;;;;;;;20.49;38.11;102801.69;3123467;27;113877;-57
2021/03/02 01:58:38;;;;;;;;;;;;;;;20.49;38.37;102804.50;3093119;28;113856;-57
2021/03/02 02:00:14;;;;;;;;;;;;;;;20.47;38.16;102803.91;3108265;27;113979;-57
2021/03/02 02:01:47;;;;;;;;;;;;;;;20.46;38.56;102799.41;3104669;28;113945;-57
2021/03/02 02:03:21;;;;;;;;;;;;;;;20.45;38.49;102796.84;3117133;27;114159;-57
2021/03/02 02:04:56;;;;;;;;;;;;;;;20.42;38.49;102798.25;3122558;27;114259;-57
2021/03/02 02:06:38;;;;;;;;;;;;;;;20.42;38.48;102793.47;3119593;27;113725;-57
2021/03/02 02:08:11;;;;;;;;;;;;;;;20.42;38.30;102798.25;3105563;28;113975;-57
2021/03/02 02:09:46;;;;;;;;;;;;;;;20.41;38.60;102793.72;3116036;27;113890;-57
2021/03/02 02:11:19;;;;;;;;;;;;;;;20.39;38.71;102788.41;3116948;27;114340;-57
2021/03/02 02:13:05;;;;;;;;;;;;;;;20.40;38.84;102783.59;3099753;28;115639;-57
2021/03/02 02:14:43;;;;;;;;;;;;;;;20.39;38.69;102790.34;3116604;27;115387;-57
2021/03/02 02:16:16;;;;;;;;;;;;;;;20.39;38.63;102784.75;3119272;27;116355;-57
2021/03/02 02:17:57;;;;;;;;;;;;;;;20.35;38.49;102781.59;3120373;27;115288;-57
2021/03/02 02:19:35;;;;;;;;;;;;;;;20.37;38.62;102784.13;3119119;27;116764;-57
2021/03/02 02:21:07;;;;;;;;;;;;;;;20.35;38.56;102792.81;3118312;27;116482;-57
2021/03/02 02:22:42;;;;;;;;;;;;;;;20.33;38.97;102782.97;3115212;27;115148;-58
2021/03/02 02:24:18;;;;;;;;;;;;;;;20.32;38.83;102795.31;3122370;27;116463;-58
2021/03/02 02:25:59;;;;;;;;;;;;;;;20.29;38.78;102787.38;3100065;28;115325;-58
2021/03/02 02:27:32;;;;;;;;;;;;;;;20.30;38.96;102781.56;3098826;28;115127;-58
2021/03/02 02:29:04;;;;;;;;;;;;;;;20.31;38.85;102783.22;3109626;27;115729;-58
2021/03/02 02:30:37;;;;;;;;;;;;;;;20.30;39.07;102783.50;3104806;28;115593;-58
2021/03/02 02:32:10;;;;;;;;;;;;;;;20.29;38.83;102784.56;3120087;27;115778;-58
2021/03/02 02:33:43;;;;;;;;;;;;;;;20.27;39.00;102772.75;3109986;28;115823;-57
2021/03/02 02:35:17;;;;;;;;;;;;;;;20.25;38.82;102763.75;3084376;28;116134;-57
2021/03/02 02:36:50;;;;;;;;;;;;;;;20.26;39.10;102768.28;3106853;27;116089;-57
2021/03/02 02:38:22;;;;;;;;;;;;;;;20.25;39.00;102769.38;3105797;28;114859;-57
2021/03/02 02:39:55;;;;;;;;;;;;;;;20.23;38.91;102765.97;3110762;27;115772;-57
2021/03/02 02:41:28;;;;;;;;;;;;;;;20.25;39.20;102767.41;3115141;27;114873;-57
2021/03/02 02:43:03;;;;;;;;;;;;;;;20.22;39.12;102762.31;3108823;28;117869;-58
2021/03/02 02:44:36;;;;;;;;;;;;;;;20.21;38.91;102759.78;3110448;28;115884;-58
2021/03/02 02:46:10;;;;;;;;;;;;;;;20.21;39.09;102769.06;3106919;28;115829;-58
2021/03/02 02:47:44;;;;;;;;;;;;;;;20.19;38.96;102767.59;3120316;27;116059;-57
2021/03/02 02:49:16;;;;;;;;;;;;;;;20.18;38.93;102766.75;3109067;28;116089;-57
2021/03/02 02:50:50;;;;;;;;;;;;;;;20.19;39.13;102768.47;3103486;28;115768;-57
2021/03/02 02:52:21;;;;;;;;;;;;;;;20.19;39.02;102762.84;3117335;27;115358;-57
2021/03/02 02:53:53;;;;;;;;;;;;;;;20.17;39.22;102773.47;3125502;27;116029;-58
2021/03/02 02:55:44;;;;;;;;;;;;;;;20.17;39.09;102775.47;3123723;27;113891;-57
2021/03/02 02:57:16;;;;;;;;;;;;;;;20.16;39.32;102776.56;3116595;27;113892;-57
2021/03/02 02:58:57;;;;;;;;;;;;;;;20.14;39.25;102767.53;3117252;27;113874;-57
2021/03/02 03:00:37;;;;;;;;;;;;;;;20.13;39.46;102765.84;3109730;28;114029;-57
2021/03/02 03:02:10;;;;;;;;;;;;;;;20.12;39.26;102765.00;3116728;27;113723;-57
2021/03/02 03:03:44;;;;;;;;;;;;;;;20.12;39.34;102765.00;3108411;28;113860;-58
2021/03/02 03:05:17;;;;;;;;;;;;;;;20.10;39.36;102767.22;3107179;28;113801;-57
2021/03/02 03:06:51;;;;;;;;;;;;;;;20.12;39.38;102758.56;3096624;28;113875;-58
2021/03/02 03:08:25;;;;;;;;;;;;;;;20.10;39.44;102763.56;3118945;27;113791;-57
2021/03/02 03:09:56;;;;;;;;;;;;;;;20.10;39.29;102761.59;3121053;27;114354;-57
2021/03/02 03:11:34;;;;;;;;;;;;;;;20.08;39.74;102761.00;3098347;28;114116;-57
2021/03/02 03:13:07;;;;;;;;;;;;;;;20.07;39.84;102750.91;3100315;28;113907;-57
2021/03/02 03:14:47;;;;;;;;;;;;;;;20.07;39.73;102756.53;3105846;28;114155;-57
2021/03/02 03:16:21;;;;;;;;;;;;;;;20.07;39.73;102755.69;3106649;28;113840;-57
2021/03/02 03:17:53;;;;;;;;;;;;;;;20.07;39.67;102756.53;3097379;28;113957;-57
2021/03/02 03:19:26;;;;;;;;;;;;;;;20.03;39.70;102763.78;3089631;28;115185;-57
2021/03/02 03:20:58;;;;;;;;;;;;;;;20.03;39.83;102757.31;3100176;28;115179;-57
2021/03/02 03:22:30;;;;;;;;;;;;;;;20.02;40.13;102755.59;3106238;28;117330;-57
2021/03/02 03:24:02;;;;;;;;;;;;;;;20.03;39.68;102748.91;3114315;27;115094;-57
2021/03/02 03:25:34;;;;;;;;;;;;;;;20.03;39.63;102749.75;3119578;27;115859;-57
2021/03/02 03:27:06;;;;;;;;;;;;;;;20.02;39.88;102756.47;3114215;27;115248;-57
2021/03/02 03:28:37;;;;;;;;;;;;;;;20.00;40.01;102755.84;3097833;28;115321;-58
2021/03/02 03:30:09;;;;;;;;;;;;;;;19.99;39.77;102751.34;3112964;27;115973;-57
2021/03/02 03:31:41;;;;;;;;;;;;;;;19.97;39.94;102740.41;3123232;27;115731;-58
2021/03/02 03:33:14;;;;;;;;;;;;;;;19.98;39.80;102744.06;3120274;27;115239;-57
2021/03/02 03:34:46;;;;;;;;;;;;;;;19.97;39.86;102747.97;3117244;27;114046;-57
2021/03/02 03:36:18;;;;;;;;;;;;;;;19.95;39.98;102744.56;3106328;28;114158;-57
2021/03/02 03:37:49;;;;;;;;;;;;;;;19.97;40.17;102739.56;3094146;28;115800;-57
2021/03/02 03:39:20;;;;;;;;;;;;;;;19.95;39.94;102739.81;3112613;27;115338;-57
2021/03/02 03:40:51;;;;;;;;;;;;;;;19.92;39.98;102743.16;3118032;27;115830;-57
2021/03/02 03:42:22;;;;;;;;;;;;;;;19.92;40.29;102740.34;3114841;27;114614;-58
2021/03/02 03:44:06;;;;;;;;;;;;;;;19.92;40.27;102733.88;3120550;27;115794;-57
2021/03/02 03:45:38;;;;;;;;;;;;;;;19.93;40.13;102741.19;3109442;28;115796;-57
2021/03/02 03:47:09;;;;;;;;;;;;;;;19.92;40.15;102753.50;3111877;27;115160;-57
2021/03/02 03:48:41;;;;;;;;;;;;;;;19.91;40.27;102752.66;3119792;27;115775;-57
2021/03/02 03:50:13;;;;;;;;;;;;;;;19.90;40.35;102747.31;3110161;28;115662;-57
2021/03/02 03:51:45;;;;;;;;;;;;;;;19.90;40.52;102748.16;3086168;28;115926;-58
2021/03/02 03:53:17;;;;;;;;;;;;;;;19.88;40.45;102746.72;3114205;27;114436;-58
2021/03/02 03:54:49;;;;;;;;;;;;;;;19.86;40.54;102741.38;3110580;28;115885;-58
2021/03/02 03:56:21;;;;;;;;;;;;;;;19.86;40.60;102744.19;3116251;27;115932;-58
2021/03/02 03:57:52;;;;;;;;;;;;;;;19.86;40.61;102746.97;3106917;28;116351;-58
2021/03/02 03:59:24;;;;;;;;;;;;;;;19.87;40.76;102734.66;3115649;27;115746;-56
2021/03/02 04:00:55;;;;;;;;;;;;;;;19.87;40.56;102737.47;3100580;28;116304;-58
2021/03/02 04:02:28;;;;;;;;;;;;;;;19.87;40.31;102740.28;3113772;27;113925;-57
2021/03/02 04:04:00;;;;;;;;;;;;;;;19.86;40.30;102729.31;3117917;27;115765;-57
2021/03/02 04:05:31;;;;;;;;;;;;;;;19.86;40.56;102740.53;3116564;27;113985;-57
2021/03/02 04:07:03;;;;;;;;;;;;;;;19.86;40.55;102744.19;3103621;28;114087;-57
2021/03/02 04:08:34;;;;;;;;;;;;;;;19.83;40.61;102739.09;3119678;27;114709;-57
2021/03/02 04:10:07;;;;;;;;;;;;;;;19.83;40.47;102739.09;3108245;28;114269;-57
2021/03/02 04:11:39;;;;;;;;;;;;;;;19.83;40.50;102738.25;3090602;28;114001;-57
2021/03/02 04:13:11;;;;;;;;;;;;;;;19.82;40.26;102723.38;3111409;27;113677;-57
2021/03/02 04:14:43;;;;;;;;;;;;;;;19.81;40.46;102730.09;3122777;27;113756;-57
2021/03/02 04:16:14;;;;;;;;;;;;;;;19.81;40.10;102724.47;3109520;28;114080;-57
2021/03/02 04:17:49;;;;;;;;;;;;;;;19.80;40.40;102722.81;3118435;27;113961;-57
2021/03/02 04:19:20;;;;;;;;;;;;;;;19.79;40.30;102723.91;3108851;28;114108;-57
2021/03/02 04:20:52;;;;;;;;;;;;;;;19.78;40.29;102722.19;3113062;27;114482;-57
2021/03/02 04:22:23;;;;;;;;;;;;;;;19.75;40.17;102725.53;3127307;27;113738;-57
2021/03/02 04:23:54;;;;;;;;;;;;;;;19.75;39.94;102728.34;3117889;27;115468;-57
2021/03/02 04:25:25;;;;;;;;;;;;;;;19.74;40.13;102729.44;3109041;28;115366;-57
2021/03/02 04:26:56;;;;;;;;;;;;;;;19.75;40.08;102730.28;3102215;28;114392;-57
2021/03/02 04:28:27;;;;;;;;;;;;;;;19.72;39.81;102737.25;3114839;27;115603;-56
2021/03/02 04:29:58;;;;;;;;;;;;;;;19.72;39.80;102734.44;3123244;27;116184;-58
2021/03/02 04:31:31;;;;;;;;;;;;;;;19.71;39.96;102732.78;3124692;27;115139;-57
2021/03/02 04:33:03;;;;;;;;;;;;;;;19.67;40.04;102736.34;3121705;27;115256;-57
2021/03/02 04:34:34;;;;;;;;;;;;;;;19.68;40.14;102744.47;3111653;28;115943;-57
2021/03/02 04:36:06;;;;;;;;;;;;;;;19.68;40.13;102743.63;3119686;27;115280;-57
2021/03/02 04:37:37;;;;;;;;;;;;;;;19.69;40.15;102734.13;3102560;28;115605;-57
2021/03/02 04:39:09;;;;;;;;;;;;;;;19.65;40.21;102733.78;3106356;28;115249;-57
2021/03/02 04:40:40;;;;;;;;;;;;;;;19.66;40.21;102737.44;3098428;28;116095;-57
2021/03/02 04:42:11;;;;;;;;;;;;;;;19.67;40.14;102739.97;3100664;28;114500;-57
2021/03/02 04:43:43;;;;;;;;;;;;;;;19.64;40.52;102739.66;3104923;28;116057;-57
2021/03/02 04:45:14;;;;;;;;;;;;;;;19.61;40.30;102729.81;3112116;28;115795;-57
2021/03/02 04:46:45;;;;;;;;;;;;;;;19.61;40.12;102724.22;3120828;27;115827;-57
2021/03/02 04:48:17;;;;;;;;;;;;;;;19.60;40.30;102722.50;3123030;27;115058;-57
2021/03/02 04:49:48;;;;;;;;;;;;;;;19.60;40.28;102718.84;3116473;27;116469;-57
2021/03/02 04:51:20;;;;;;;;;;;;;;;19.58;40.25;102721.09;3124723;27;115784;-57
2021/03/02 04:52:51;;;;;;;;;;;;;;;19.58;40.02;102730.31;3121630;27;116044;-58
2021/03/02 04:54:22;;;;;;;;;;;;;;;19.56;40.29;102729.75;3119303;27;115815;-57
2021/03/02 04:55:53;;;;;;;;;;;;;;;19.56;40.34;102724.13;3111385;28;116048;-57
2021/03/02 04:57:24;;;;;;;;;;;;;;;19.58;40.28;102729.50;3097879;28;115748;-57
2021/03/02 04:58:55;;;;;;;;;;;;;;;19.57;40.26;102724.97;3096587;28;115060;-57
2021/03/02 05:00:26;;;;;;;;;;;;;;;19.57;40.29;102727.78;3110717;27;115895;-57
2021/03/02 05:01:58;;;;;;;;;;;;;;;19.55;40.02;102728.03;3111858;28;115912;-57
2021/03/02 05:03:29;;;;;;;;;;;;;;;19.54;40.05;102727.19;3108488;28;115989;-57
2021/03/02 05:05:01;;;;;;;;;;;;;;;19.56;39.96;102728.88;3119944;27;116498;-57
2021/03/02 05:06:32;;;;;;;;;;;;;;;19.54;40.39;102734.75;3128196;27;115831;-57
2021/03/02 05:08:03;;;;;;;;;;;;;;;19.59;40.40;102719.94;3111891;28;115293;-57
2021/03/02 05:09:34;;;;;;;;;;;;;;;19.56;40.47;102718.53;3118431;27;113695;-57
2021/03/02 05:11:05;;;;;;;;;;;;;;;19.57;40.55;102706.22;3119901;27;113817;-57
2021/03/02 05:12:37;;;;;;;;;;;;;;;19.60;40.86;102716.03;3121749;27;113983;-57
2021/03/02 05:14:08;;;;;;;;;;;;;;;19.60;40.72;102711.28;3123110;27;114177;-57
2021/03/02 05:15:39;;;;;;;;;;;;;;;19.64;40.82;102714.41;3121863;27;113804;-59
2021/03/02 05:17:10;;;;;;;;;;;;;;;19.67;40.81;102711.94;3124323;27;114006;-57
2021/03/02 05:18:42;;;;;;;;;;;;;;;19.65;40.74;102719.78;3114407;27;113606;-57
2021/03/02 05:20:13;;;;;;;;;;;;;;;19.66;40.91;102715.88;3107550;28;113858;-57
2021/03/02 05:21:44;;;;;;;;;;;;;;;19.70;40.80;102713.38;3104328;28;114867;-57
2021/03/02 05:23:15;;;;;;;;;;;;;;;19.70;40.90;102719.84;3119609;27;114210;-57
2021/03/02 05:24:47;;;;;;;;;;;;;;;19.70;40.74;102714.25;3121591;27;114121;-57
2021/03/02 05:26:21;;;;;;;;;;;;;;;19.73;40.61;102712.84;3114334;27;113732;-57
2021/03/02 05:27:52;;;;;;;;;;;;;;;19.73;40.78;102716.50;3104082;28;114284;-57
2021/03/02 05:29:23;;;;;;;;;;;;;;;19.75;40.70;102724.69;3104261;28;115099;-57
2021/03/02 05:30:54;;;;;;;;;;;;;;;19.77;40.81;102717.69;3097879;28;114219;-57
2021/03/02 05:32:25;;;;;;;;;;;;;;;19.80;40.71;102721.94;3113579;27;114291;-57
2021/03/02 05:33:57;;;;;;;;;;;;;;;19.82;40.81;102720.56;3120433;27;115242;-57
2021/03/02 05:35:29;;;;;;;;;;;;;;;19.86;41.08;102715.28;3106071;28;115206;-57
2021/03/02 05:37:00;;;;;;;;;;;;;;;19.88;41.21;102722.34;3112212;27;114899;-57
2021/03/02 05:38:32;;;;;;;;;;;;;;;19.93;40.97;102713.13;3122077;27;115508;-57
2021/03/02 05:40:03;;;;;;;;;;;;;;;19.96;40.93;102719.06;3122596;27;114881;-57
2021/03/02 05:41:35;;;;;;;;;;;;;;;20.01;40.69;102720.25;3099472;28;115144;-57
2021/03/02 05:43:07;;;;;;;;;;;;;;;20.06;40.88;102721.16;3112222;27;115067;-57
2021/03/02 05:44:38;;;;;;;;;;;;;;;20.10;40.61;102725.13;3112650;27;115544;-57
2021/03/02 05:46:10;;;;;;;;;;;;;;;20.15;40.54;102718.72;3097000;28;115108;-58
2021/03/02 05:47:45;;;;;;;;;;;;;;;20.18;40.46;102730.28;3115594;27;115220;-57
2021/03/02 05:49:16;;;;;;;;;;;;;;;20.24;40.45;102723.63;3114227;28;115303;-57
2021/03/02 05:50:48;;;;;;;;;;;;;;;20.29;40.58;102722.81;3118674;27;116470;-57
2021/03/02 05:52:19;;;;;;;;;;;;;;;20.33;40.51;102726.81;3119539;27;115670;-57
2021/03/02 05:53:50;;;;;;;;;;;;;;;20.37;40.25;102728.00;3113957;27;115737;-57
2021/03/02 05:55:22;;;;;;;;;;;;;;;20.43;40.06;102735.38;3123831;27;114330;-57
2021/03/02 05:56:53;;;;;;;;;;;;;;;20.47;39.96;102738.50;3098612;28;115749;-57
2021/03/02 05:58:24;;;;;;;;;;;;;;;20.51;39.73;102737.69;3114231;27;115864;-57
2021/03/02 05:59:56;;;;;;;;;;;;;;;20.55;40.21;102730.44;3115829;27;116323;-57
2021/03/02 06:01:28;;;;;;;;;;;;;;;20.59;40.00;102728.78;3118946;27;116335;-57
2021/03/02 06:02:59;;;;;;;;;;;;;;;20.64;39.99;102737.25;3098787;28;115886;-57
2021/03/02 06:04:31;;;;;;;;;;;;;;;20.68;39.79;102741.22;3106503;28;114647;-57
2021/03/02 06:06:03;;;;;;;;;;;;;;;20.71;39.82;102734.25;3105662;28;115850;-57
2021/03/02 06:07:34;;;;;;;;;;;;;;;20.75;39.65;102732.59;3101756;28;115796;-57
2021/03/02 06:09:05;;;;;;;;;;;;;;;20.78;39.79;102734.88;3119208;27;115829;-57
2021/03/02 06:10:37;;;;;;;;;;;;;;;20.82;39.79;102734.06;3113183;28;116800;-58
2021/03/02 06:12:08;;;;;;;;;;;;;;;20.88;40.16;102734.13;3098788;28;114320;-57
2021/03/02 06:13:39;;;;;;;;;;;;;;;20.92;39.69;102740.91;3110685;28;113854;-58
2021/03/02 06:15:10;;;;;;;;;;;;;;;20.97;39.58;102738.13;3110465;28;113858;-58
2021/03/02 06:16:46;;;;;;;;;;;;;;;21.00;39.57;102730.00;3108956;27;114338;-57
2021/03/02 06:18:18;;;;;;;;;;;;;;;21.04;39.56;102725.53;3098756;28;113657;-57
2021/03/02 06:19:50;;;;;;;;;;;;;;;21.08;39.47;102726.69;3105036;28;113930;-58
2021/03/02 06:21:21;;;;;;;;;;;;;;;21.13;39.45;102720.28;3112280;27;113997;-57
2021/03/02 06:22:52;;;;;;;;;;;;;;;21.15;39.80;102721.75;3105799;28;113878;-57
2021/03/02 06:24:34;;;;;;;;;;;;;;;21.19;39.80;102725.69;3107316;27;114016;-58
2021/03/02 06:26:08;;;;;;;;;;;;;;;21.23;39.31;102726.00;3119915;27;113705;-58
2021/03/02 06:27:45;;;;;;;;;;;;;;;21.28;39.26;102726.03;3123019;27;113850;-58
2021/03/02 06:29:16;;;;;;;;;;;;;;;21.31;39.39;102719.88;3103491;28;113950;-57
2021/03/02 06:30:47;;;;;;;;;;;;;;;21.34;39.33;102727.78;3110779;27;113725;-57
2021/03/02 06:32:35;;;;;;;;;;;;;;;21.39;39.42;102726.97;3117778;27;113825;-57
2021/03/02 06:34:08;;;;;;;;;;;;;;;21.44;39.49;102733.44;3120826;27;113785;-57
2021/03/02 06:35:42;;;;;;;;;;;;;;;21.48;39.37;102737.44;3102871;28;115204;-57
2021/03/02 06:37:14;;;;;;;;;;;;;;;21.50;39.16;102743.63;3120523;27;115923;-57
2021/03/02 06:38:45;;;;;;;;;;;;;;;21.54;38.97;102739.16;3123598;27;114105;-57
2021/03/02 06:40:16;;;;;;;;;;;;;;;21.58;39.00;102745.06;3122542;27;115644;-57
2021/03/02 06:41:48;;;;;;;;;;;;;;;21.61;38.75;102748.22;3106641;28;115618;-57
2021/03/02 06:43:29;;;;;;;;;;;;;;;21.65;38.70;102745.69;3115210;27;115063;-57
2021/03/02 06:45:05;;;;;;;;;;;;;;;21.67;38.61;102749.91;3102910;28;115110;-58
2021/03/02 06:46:40;;;;;;;;;;;;;;;21.71;38.60;102747.44;3105901;28;115100;-57
2021/03/02 06:48:11;;;;;;;;;;;;;;;21.75;38.41;102754.19;3106630;28;115168;-57
2021/03/02 06:49:44;;;;;;;;;;;;;;;21.78;38.65;102744.34;3106368;28;115196;-57
2021/03/02 06:51:24;;;;;;;;;;;;;;;21.80;38.49;102751.41;3110142;27;115121;-57
2021/03/02 06:52:55;;;;;;;;;;;;;;;21.83;38.31;102745.22;3119384;27;115024;-57
2021/03/02 06:54:30;;;;;;;;;;;;;;;21.86;38.33;102746.63;3109437;28;114657;-57
2021/03/02 06:56:10;;;;;;;;;;;;;;;21.89;38.33;102737.66;3107095;28;115048;-57
2021/03/02 06:57:42;;;;;;;;;;;;;;;21.93;38.53;102745.31;3116269;27;116368;-57
2021/03/02 06:59:15;;;;;;;;;;;;;;;21.96;38.41;102746.72;3119743;27;115672;-57
2021/03/02 07:00:48;;;;;;;;;;;;;;;21.99;38.51;102746.16;3116632;27;115679;-57
2021/03/02 07:02:30;;;;;;;;;;;;;;;22.03;38.74;102750.16;3109901;28;114917;-57
2021/03/02 07:04:11;;;;;;;;;;;;;;;22.05;38.27;102745.94;3107492;28;115800;-57
2021/03/02 07:05:52;;;;;;;;;;;;;;;22.07;38.31;102748.47;3100531;28;116223;-57
2021/03/02 07:07:25;;;;;;;;;;;;;;;22.10;38.17;102742.28;3113862;27;114717;-57
2021/03/02 07:08:56;;;;;;;;;;;;;;;22.12;38.36;102748.50;3109931;28;116076;-57
2021/03/02 07:10:27;;;;;;;;;;;;;;;22.15;38.28;102750.75;3115804;27;115306;-57
2021/03/02 07:12:00;;;;;;;;;;;;;;;22.16;38.07;102750.50;3123946;27;116236;-58
2021/03/02 07:13:32;;;;;;;;;;;;;;;22.20;37.96;102745.16;3111309;27;115983;-57
2021/03/02 07:15:05;;;;;;;;;;;;;;;22.23;38.17;102755.84;3123990;27;116131;-57
2021/03/02 07:16:38;;;;;;;;;;;;;;;22.25;38.16;102759.25;3121035;27;115795;-57
2021/03/02 07:18:13;;;;;;;;;;;;;;;22.28;38.14;102757.84;3126796;27;115754;-57
2021/03/02 07:19:44;;;;;;;;;;;;;;;22.30;38.16;102764.06;3122292;27;113762;-57
2021/03/02 07:21:15;;;;;;;;;;;;;;;22.33;38.15;102755.03;3118212;27;113873;-57
2021/03/02 07:22:48;;;;;;;;;;;;;;;22.34;37.87;102766.03;3100281;28;113944;-57
2021/03/02 07:24:21;;;;;;;;;;;;;;;22.37;37.88;102759.84;3118711;27;113979;-57
2021/03/02 07:25:53;;;;;;;;;;;;;;;22.39;38.13;102763.25;3119100;27;113671;-57
2021/03/02 07:27:24;;;;;;;;;;;;;;;22.42;38.21;102762.69;3109823;28;114234;-57
2021/03/02 07:28:55;;;;;;;;;;;;;;;22.44;38.22;102762.41;3118430;27;113902;-57
2021/03/02 07:30:27;;;;;;;;;;;;;;;22.46;38.15;102763.81;3120057;27;113691;-57
2021/03/02 07:31:58;;;;;;;;;;;;;;;22.47;38.19;102759.88;3093806;28;114174;-58
2021/03/02 07:33:30;;;;;;;;;;;;;;;22.50;37.94;102761.28;3109508;27;113938;-57
2021/03/02 07:35:01;;;;;;;;;;;;;;;22.52;37.95;102762.72;3099031;28;113951;-57
2021/03/02 07:36:35;;;;;;;;;;;;;;;22.54;38.09;102754.81;3109605;27;114363;-57
2021/03/02 07:38:18;;;;;;;;;;;;;;;22.58;37.90;102760.72;3108585;28;113955;-59
2021/03/02 07:39:59;;;;;;;;;;;;;;;22.60;38.13;102764.97;3105054;28;113779;-58
2021/03/02 07:41:34;;;;;;;;;;;;;;;22.62;37.76;102773.97;3109381;28;115246;-59
2021/03/02 07:43:21;;;;;;;;;;;;;;;22.63;37.82;102767.22;3109894;28;115009;-56
2021/03/02 07:45:02;;;;;;;;;;;;;;;22.68;38.06;102765.53;3102855;28;114717;-57
2021/03/02 07:46:40;;;;;;;;;;;;;;;22.72;38.11;102776.00;3106194;28;115174;-56
2021/03/02 07:48:23;;;;;;;;;;;;;;;22.73;38.22;102771.22;3104652;28;115574;-59
2021/03/02 07:50:13;;;;;;;;;;;;;;;22.75;38.16;102766.16;3109416;28;115229;-57
2021/03/02 07:51:44;;;;;;;;;;;;;;;22.75;37.94;102764.19;3105100;28;115211;-57
2021/03/02 07:53:16;;;;;;;;;;;;;;;22.78;37.76;102774.91;3111463;28;115153;-57